Time;durP1;ratioP1;P1;durP2;ratioP2;P2;SDS_P1;SDS_P2;PMS_P1;PMS_P2;Temp;Humidity;BMP_temperature;BMP_pressure;BME280_temperature;BME280_humidity;BME280_pressure;Samples;Min_cycle;Max_cycle;Signal;HPM_P1;HPM_P2
2024/03/13 00:01:06;;;;;;;57.40;27.52;;;;;;;;;;5042228;28;20307;-73
2024/03/13 00:03:33;;;;;;;55.60;26.67;;;;;;;;;;5068782;28;20209;-74
2024/03/13 00:05:59;;;;;;;60.97;28.23;;;;;;;;;;5063680;28;20250;-73
2024/03/13 00:08:26;;;;;;;55.28;27.17;;;;;;;;;;5067436;28;20209;-73
2024/03/13 00:10:52;;;;;;;57.88;27.02;;;;;;;;;;5077252;28;20256;-72
2024/03/13 00:13:19;;;;;;;59.67;26.58;;;;;;;;;;5069237;28;20310;-73
2024/03/13 00:15:45;;;;;;;58.33;26.35;;;;;;;;;;5068804;28;20668;-73
2024/03/13 00:18:10;;;;;;;56.35;26.48;;;;;;;;;;5065343;28;20365;-73
2024/03/13 00:20:36;;;;;;;52.65;25.27;;;;;;;;;;5075775;28;20200;-72
2024/03/13 00:23:01;;;;;;;53.28;26.52;;;;;;;;;;5072959;28;20208;-73
2024/03/13 00:25:28;;;;;;;47.25;24.92;;;;;;;;;;5065576;28;20223;-73
2024/03/13 00:27:55;;;;;;;56.95;25.38;;;;;;;;;;5070815;28;20208;-72
2024/03/13 00:30:23;;;;;;;57.78;26.27;;;;;;;;;;5072197;28;20189;-72
2024/03/13 00:32:53;;;;;;;57.08;26.35;;;;;;;;;;5064724;28;20197;-73
2024/03/13 00:35:20;;;;;;;48.83;24.42;;;;;;;;;;5060906;28;20224;-72
2024/03/13 00:37:47;;;;;;;53.83;26.40;;;;;;;;;;5076300;28;20173;-72
2024/03/13 00:40:16;;;;;;;55.08;25.88;;;;;;;;;;5069766;28;20243;-73
2024/03/13 00:42:43;;;;;;;51.42;24.52;;;;;;;;;;5061416;28;20272;-73
2024/03/13 00:45:13;;;;;;;57.47;26.67;;;;;;;;;;5051498;28;20185;-73
2024/03/13 00:47:38;;;;;;;49.88;24.67;;;;;;;;;;5049936;28;20226;-74
2024/03/13 00:50:08;;;;;;;52.33;24.30;;;;;;;;;;5063561;28;20260;-73
2024/03/13 00:52:34;;;;;;;50.08;24.30;;;;;;;;;;5063859;28;20265;-73
2024/03/13 00:55:00;;;;;;;48.55;24.65;;;;;;;;;;5066113;28;20267;-73
2024/03/13 00:57:27;;;;;;;50.83;24.58;;;;;;;;;;5074109;28;20704;-73
2024/03/13 00:59:52;;;;;;;53.20;25.20;;;;;;;;;;5067690;28;20263;-73
2024/03/13 01:02:20;;;;;;;47.55;24.17;;;;;;;;;;5061610;28;20204;-73
2024/03/13 01:04:48;;;;;;;50.70;23.30;;;;;;;;;;5065007;28;20183;-73
2024/03/13 01:07:14;;;;;;;48.70;25.55;;;;;;;;;;5068427;28;20180;-72
2024/03/13 01:09:40;;;;;;;42.83;23.33;;;;;;;;;;5071738;28;20201;-72
2024/03/13 01:12:06;;;;;;;45.55;23.77;;;;;;;;;;5063457;28;20571;-72
2024/03/13 01:14:32;;;;;;;48.13;23.05;;;;;;;;;;5065485;28;20204;-72
2024/03/13 01:16:58;;;;;;;43.88;22.67;;;;;;;;;;5057295;28;20189;-72
2024/03/13 01:19:24;;;;;;;46.75;23.90;;;;;;;;;;5063550;28;20746;-72
2024/03/13 01:22:04;;;;;;;47.08;23.02;;;;;;;;;;5069145;28;20196;-73
2024/03/13 01:24:32;;;;;;;43.80;21.98;;;;;;;;;;5064273;28;20552;-73
2024/03/13 01:26:58;;;;;;;49.95;22.95;;;;;;;;;;5051314;28;20192;-73
2024/03/13 01:29:24;;;;;;;51.42;24.13;;;;;;;;;;5057622;28;20213;-73
2024/03/13 01:31:50;;;;;;;43.58;22.05;;;;;;;;;;5042390;28;20219;-72
2024/03/13 01:34:16;;;;;;;43.72;22.17;;;;;;;;;;5057597;28;20189;-72
2024/03/13 01:39:26;;;;;;;46.55;22.35;;;;;;;;;;5061140;28;20726;-72
2024/03/13 01:55:44;;;;;;;40.83;21.02;;;;;;;;;;5060927;28;20196;-72
2024/03/13 01:58:19;;;;;;;44.38;21.33;;;;;;;;;;5054697;28;20723;-72
2024/03/13 02:03:31;;;;;;;43.08;21.60;;;;;;;;;;5068489;28;20528;-72
2024/03/13 02:05:57;;;;;;;41.63;20.55;;;;;;;;;;5068140;28;20652;-73
2024/03/13 02:08:24;;;;;;;43.58;21.60;;;;;;;;;;5063961;28;20366;-72
2024/03/13 02:10:49;;;;;;;45.53;21.45;;;;;;;;;;5060129;28;20187;-74
2024/03/13 02:13:17;;;;;;;44.20;22.63;;;;;;;;;;5071063;28;20240;-73
2024/03/13 02:15:43;;;;;;;48.47;21.58;;;;;;;;;;5065669;28;20188;-72
2024/03/13 02:18:24;;;;;;;41.00;21.15;;;;;;;;;;5070489;28;20193;-72
2024/03/13 02:20:52;;;;;;;46.70;22.13;;;;;;;;;;5067400;28;20186;-73
2024/03/13 02:23:23;;;;;;;45.55;21.52;;;;;;;;;;5069141;28;20181;-72
2024/03/13 02:25:53;;;;;;;45.00;22.17;;;;;;;;;;5069010;28;20192;-73
2024/03/13 02:28:39;;;;;;;43.22;22.10;;;;;;;;;;5046008;28;20295;-72
2024/03/13 02:31:08;;;;;;;43.70;22.23;;;;;;;;;;5062153;28;20193;-72
2024/03/13 02:33:35;;;;;;;42.72;21.75;;;;;;;;;;5068464;28;20488;-72
2024/03/13 02:36:01;;;;;;;41.42;21.85;;;;;;;;;;5064597;28;20246;-72
2024/03/13 02:38:30;;;;;;;44.42;21.88;;;;;;;;;;5068048;28;20280;-73
2024/03/13 02:40:56;;;;;;;40.65;21.17;;;;;;;;;;5063122;28;20212;-72
2024/03/13 02:43:21;;;;;;;41.92;20.92;;;;;;;;;;5065616;28;20202;-72
2024/03/13 02:45:47;;;;;;;41.90;21.85;;;;;;;;;;5062913;28;20655;-73
2024/03/13 02:48:15;;;;;;;41.28;20.38;;;;;;;;;;5066205;28;20213;-72
2024/03/13 02:50:42;;;;;;;47.90;23.40;;;;;;;;;;5062057;28;20639;-72
2024/03/13 02:53:08;;;;;;;43.22;21.95;;;;;;;;;;5064898;28;20220;-73
2024/03/13 02:55:34;;;;;;;44.55;21.75;;;;;;;;;;5068312;28;20180;-72
2024/03/13 02:58:01;;;;;;;43.63;21.83;;;;;;;;;;5050905;28;20184;-72
2024/03/13 03:00:26;;;;;;;43.70;22.50;;;;;;;;;;5063247;28;20271;-72
2024/03/13 03:02:54;;;;;;;42.35;21.75;;;;;;;;;;5064029;28;20288;-72
2024/03/13 03:05:20;;;;;;;46.80;22.58;;;;;;;;;;5066083;28;20193;-72
2024/03/13 03:07:46;;;;;;;46.17;22.58;;;;;;;;;;5068782;28;20216;-72
2024/03/13 03:10:11;;;;;;;48.75;21.63;;;;;;;;;;5061774;28;20188;-72
2024/03/13 03:12:37;;;;;;;52.35;24.08;;;;;;;;;;5067124;28;20188;-72
2024/03/13 03:15:03;;;;;;;47.08;23.63;;;;;;;;;;5067400;28;20679;-72
2024/03/13 03:17:28;;;;;;;50.05;24.65;;;;;;;;;;5062969;28;20651;-73
2024/03/13 03:19:54;;;;;;;48.42;22.33;;;;;;;;;;5073100;28;20262;-72
2024/03/13 03:22:19;;;;;;;49.00;23.35;;;;;;;;;;5066888;28;20207;-73
2024/03/13 03:24:51;;;;;;;52.33;23.25;;;;;;;;;;5070906;28;20193;-72
2024/03/13 03:27:16;;;;;;;50.22;23.25;;;;;;;;;;5045305;28;20495;-72
2024/03/13 03:29:42;;;;;;;52.15;24.38;;;;;;;;;;5067433;28;20314;-72
2024/03/13 03:32:08;;;;;;;48.20;23.60;;;;;;;;;;5061627;28;20204;-73
2024/03/13 03:34:35;;;;;;;49.70;24.42;;;;;;;;;;5062480;28;20649;-72
2024/03/13 03:37:01;;;;;;;55.28;25.38;;;;;;;;;;5068990;28;20238;-73
2024/03/13 03:39:34;;;;;;;53.80;25.35;;;;;;;;;;5053831;28;20189;-73
2024/03/13 03:42:03;;;;;;;54.20;24.58;;;;;;;;;;5060059;28;20285;-73
2024/03/13 03:44:29;;;;;;;49.92;23.88;;;;;;;;;;5066876;28;20291;-73
2024/03/13 03:46:56;;;;;;;53.08;23.80;;;;;;;;;;5066465;28;20822;-73
2024/03/13 03:49:22;;;;;;;57.00;25.30;;;;;;;;;;5066797;28;20592;-73
2024/03/13 03:51:49;;;;;;;53.15;24.42;;;;;;;;;;5060861;28;20711;-73
2024/03/13 03:54:14;;;;;;;57.25;25.52;;;;;;;;;;5061973;28;20507;-73
2024/03/13 03:56:40;;;;;;;50.65;24.83;;;;;;;;;;5063050;28;20318;-73
2024/03/13 03:59:07;;;;;;;48.67;24.52;;;;;;;;;;5055154;28;20275;-73
2024/03/13 04:01:34;;;;;;;50.88;24.33;;;;;;;;;;5061490;28;20211;-73
2024/03/13 04:04:00;;;;;;;52.63;24.80;;;;;;;;;;5062162;28;20691;-73
2024/03/13 04:06:26;;;;;;;54.90;25.30;;;;;;;;;;5071465;28;20184;-73
2024/03/13 04:08:51;;;;;;;54.33;25.77;;;;;;;;;;5056823;28;20239;-73
2024/03/13 04:11:17;;;;;;;50.33;23.45;;;;;;;;;;5065749;28;20189;-74
2024/03/13 04:13:42;;;;;;;53.75;25.48;;;;;;;;;;5070922;28;20276;-73
2024/03/13 04:16:10;;;;;;;55.90;26.65;;;;;;;;;;5066234;28;20188;-74
2024/03/13 04:18:36;;;;;;;54.60;26.08;;;;;;;;;;5064692;28;20207;-73
2024/03/13 04:21:03;;;;;;;53.65;25.60;;;;;;;;;;5066439;28;20220;-73
2024/03/13 04:23:29;;;;;;;64.60;27.83;;;;;;;;;;5059098;28;20189;-73
2024/03/13 04:25:55;;;;;;;64.40;28.52;;;;;;;;;;5078335;28;20185;-74
2024/03/13 04:28:22;;;;;;;60.88;28.25;;;;;;;;;;5071089;28;20201;-73
2024/03/13 04:30:47;;;;;;;58.00;27.50;;;;;;;;;;5074876;28;20212;-73
2024/03/13 04:33:16;;;;;;;61.92;29.17;;;;;;;;;;5071964;28;20221;-73
2024/03/13 04:35:45;;;;;;;67.03;30.08;;;;;;;;;;5068832;28;20546;-73
2024/03/13 04:38:13;;;;;;;68.85;29.40;;;;;;;;;;5067236;28;20678;-73
2024/03/13 04:40:39;;;;;;;63.83;29.83;;;;;;;;;;5065693;28;20185;-73
2024/03/13 04:43:07;;;;;;;64.50;28.13;;;;;;;;;;5066717;28;20272;-72
2024/03/13 04:45:35;;;;;;;65.68;29.65;;;;;;;;;;5070695;28;20197;-72
2024/03/13 04:48:00;;;;;;;71.72;31.92;;;;;;;;;;5070400;28;20246;-72
2024/03/13 04:50:26;;;;;;;66.05;30.38;;;;;;;;;;5065902;28;20188;-72
2024/03/13 04:52:51;;;;;;;66.88;30.00;;;;;;;;;;5071319;28;20181;-72
2024/03/13 04:55:17;;;;;;;72.72;32.00;;;;;;;;;;5043992;28;20724;-72
2024/03/13 04:57:42;;;;;;;72.93;31.23;;;;;;;;;;5062229;28;20181;-72
2024/03/13 05:00:08;;;;;;;74.95;32.65;;;;;;;;;;5067978;28;20216;-72
2024/03/13 05:02:33;;;;;;;78.38;33.30;;;;;;;;;;5074458;28;20192;-72
2024/03/13 05:04:59;;;;;;;80.25;34.20;;;;;;;;;;5065517;28;20283;-73
2024/03/13 05:07:24;;;;;;;82.75;34.88;;;;;;;;;;5066058;28;20679;-72
2024/03/13 05:09:52;;;;;;;88.70;35.47;;;;;;;;;;5069329;28;20294;-72
2024/03/13 05:12:17;;;;;;;90.07;34.30;;;;;;;;;;5066838;28;20279;-72
2024/03/13 05:14:43;;;;;;;92.30;35.13;;;;;;;;;;5049390;28;20351;-72
2024/03/13 05:17:15;;;;;;;98.15;35.60;;;;;;;;;;5053064;28;20216;-72
2024/03/13 05:19:42;;;;;;;91.32;34.65;;;;;;;;;;5051322;28;20206;-72
2024/03/13 05:22:09;;;;;;;83.72;33.25;;;;;;;;;;5067154;28;20559;-73
2024/03/13 05:24:35;;;;;;;105.03;35.05;;;;;;;;;;5054663;28;20204;-73
2024/03/13 05:27:01;;;;;;;93.75;34.25;;;;;;;;;;5061866;28;20193;-74
2024/03/13 05:29:27;;;;;;;99.75;35.20;;;;;;;;;;5065510;28;20223;-73
2024/03/13 05:31:54;;;;;;;80.72;33.22;;;;;;;;;;5063099;28;20180;-72
2024/03/13 05:34:19;;;;;;;95.63;35.80;;;;;;;;;;5064539;28;20204;-72
2024/03/13 05:36:45;;;;;;;88.47;34.17;;;;;;;;;;5061407;28;20232;-72
2024/03/13 05:39:12;;;;;;;80.53;33.92;;;;;;;;;;5071114;28;20188;-73
2024/03/13 05:41:38;;;;;;;82.07;33.03;;;;;;;;;;5053727;28;20197;-73
2024/03/13 05:44:04;;;;;;;83.28;34.42;;;;;;;;;;5047664;28;20516;-73
2024/03/13 05:46:30;;;;;;;81.57;32.97;;;;;;;;;;5063038;28;20181;-73
2024/03/13 05:48:55;;;;;;;72.97;31.58;;;;;;;;;;5059866;28;20645;-73
2024/03/13 05:51:21;;;;;;;75.25;32.25;;;;;;;;;;5058381;28;20189;-73
2024/03/13 05:53:46;;;;;;;71.78;30.95;;;;;;;;;;5085559;28;20185;-73
2024/03/13 05:56:11;;;;;;;67.95;28.50;;;;;;;;;;5070689;28;20267;-72
2024/03/13 05:58:37;;;;;;;64.63;29.55;;;;;;;;;;5059982;28;20275;-73
2024/03/13 06:01:03;;;;;;;62.72;27.88;;;;;;;;;;5065251;28;21084;-73
2024/03/13 06:03:29;;;;;;;64.90;29.80;;;;;;;;;;5049848;28;20191;-73
2024/03/13 06:05:55;;;;;;;63.42;28.17;;;;;;;;;;5066701;28;20535;-73
2024/03/13 06:08:20;;;;;;;64.68;29.83;;;;;;;;;;5066433;28;20205;-73
2024/03/13 06:10:47;;;;;;;67.25;28.77;;;;;;;;;;5070883;28;20722;-73
2024/03/13 06:13:12;;;;;;;62.65;29.23;;;;;;;;;;5072166;28;20199;-74
2024/03/13 06:15:38;;;;;;;63.00;28.00;;;;;;;;;;5061236;28;20394;-74
2024/03/13 06:18:03;;;;;;;59.75;27.70;;;;;;;;;;5064728;28;20654;-74
2024/03/13 06:20:29;;;;;;;62.95;28.70;;;;;;;;;;5056539;28;20250;-74
2024/03/13 06:22:55;;;;;;;51.13;26.60;;;;;;;;;;5070353;28;20708;-73
2024/03/13 06:25:23;;;;;;;56.25;26.40;;;;;;;;;;5056859;28;20197;-73
2024/03/13 06:27:50;;;;;;;58.88;27.73;;;;;;;;;;5064083;28;20212;-73
2024/03/13 06:30:16;;;;;;;50.75;25.75;;;;;;;;;;5053647;28;20253;-72
2024/03/13 06:32:41;;;;;;;54.72;26.35;;;;;;;;;;5057439;28;20230;-72
2024/03/13 06:35:07;;;;;;;60.75;27.73;;;;;;;;;;5054276;28;20252;-72
2024/03/13 06:37:33;;;;;;;54.60;25.73;;;;;;;;;;5064284;28;20229;-72
2024/03/13 06:39:59;;;;;;;46.22;24.25;;;;;;;;;;5064804;28;20204;-72
2024/03/13 06:42:25;;;;;;;50.92;24.60;;;;;;;;;;5063850;28;20192;-72
2024/03/13 06:44:51;;;;;;;51.70;23.33;;;;;;;;;;5061334;28;20222;-72
2024/03/13 06:47:16;;;;;;;50.35;24.17;;;;;;;;;;5055904;28;20543;-72
2024/03/13 06:49:45;;;;;;;56.22;24.77;;;;;;;;;;5063075;28;20234;-73
2024/03/13 06:52:14;;;;;;;49.30;25.25;;;;;;;;;;5063636;28;20193;-73
2024/03/13 06:54:40;;;;;;;51.08;24.67;;;;;;;;;;5066698;28;20188;-73
2024/03/13 06:57:06;;;;;;;49.22;22.95;;;;;;;;;;5064108;28;20182;-73
2024/03/13 06:59:33;;;;;;;46.80;22.70;;;;;;;;;;5066684;28;20176;-73
2024/03/13 07:02:00;;;;;;;45.95;22.55;;;;;;;;;;5064381;28;20661;-73
2024/03/13 07:04:26;;;;;;;44.58;22.05;;;;;;;;;;5063294;28;20258;-73
2024/03/13 07:06:57;;;;;;;47.78;21.25;;;;;;;;;;5062637;28;20196;-73
2024/03/13 07:09:24;;;;;;;43.38;21.20;;;;;;;;;;5062711;28;20308;-73
2024/03/13 07:11:50;;;;;;;46.33;20.42;;;;;;;;;;5075520;28;20218;-73
2024/03/13 07:14:17;;;;;;;43.70;20.25;;;;;;;;;;5045723;28;20704;-74
2024/03/13 07:16:43;;;;;;;44.85;19.50;;;;;;;;;;5067867;28;20223;-73
2024/03/13 07:19:09;;;;;;;40.88;18.83;;;;;;;;;;5064090;28;20233;-73
2024/03/13 07:21:35;;;;;;;36.65;18.95;;;;;;;;;;5064134;28;20500;-72
2024/03/13 07:24:01;;;;;;;45.42;19.13;;;;;;;;;;5063124;28;20185;-73
2024/03/13 07:26:26;;;;;;;42.72;19.20;;;;;;;;;;5060181;28;20668;-73
2024/03/13 07:28:53;;;;;;;40.15;18.65;;;;;;;;;;5069628;28;20238;-73
2024/03/13 07:31:20;;;;;;;45.50;19.77;;;;;;;;;;5062726;28;20188;-73
2024/03/13 07:33:46;;;;;;;41.95;19.67;;;;;;;;;;5065539;28;20213;-73
2024/03/13 07:36:11;;;;;;;43.35;19.50;;;;;;;;;;5067706;28;20589;-73
2024/03/13 07:38:37;;;;;;;39.55;19.40;;;;;;;;;;5067352;28;20185;-73
2024/03/13 07:41:10;;;;;;;39.42;19.45;;;;;;;;;;5066721;28;20357;-73
2024/03/13 07:43:36;;;;;;;40.25;18.45;;;;;;;;;;5065482;28;20184;-74
2024/03/13 07:46:01;;;;;;;42.47;19.10;;;;;;;;;;5068795;28;20205;-73
2024/03/13 07:48:26;;;;;;;40.92;19.25;;;;;;;;;;5072063;28;20213;-74
2024/03/13 07:50:52;;;;;;;44.58;19.92;;;;;;;;;;5073861;28;20189;-73
2024/03/13 07:53:21;;;;;;;41.15;19.08;;;;;;;;;;5061960;28;20212;-74
2024/03/13 07:55:50;;;;;;;39.38;18.20;;;;;;;;;;5068373;28;20314;-73
2024/03/13 07:58:15;;;;;;;37.70;17.88;;;;;;;;;;5070149;28;20298;-73
2024/03/13 08:00:41;;;;;;;44.97;19.27;;;;;;;;;;5049610;28;20578;-73
2024/03/13 08:03:07;;;;;;;48.67;20.38;;;;;;;;;;5066731;28;20205;-73
2024/03/13 08:05:33;;;;;;;43.53;18.73;;;;;;;;;;5056947;28;20185;-73
2024/03/13 08:07:58;;;;;;;43.45;19.80;;;;;;;;;;5069745;28;20627;-73
2024/03/13 08:10:28;;;;;;;42.22;19.15;;;;;;;;;;5070849;28;20200;-73
2024/03/13 08:12:54;;;;;;;42.90;19.00;;;;;;;;;;5066786;28;20185;-73
2024/03/13 08:15:20;;;;;;;44.50;19.30;;;;;;;;;;5064881;28;20196;-73
2024/03/13 08:17:45;;;;;;;42.53;19.25;;;;;;;;;;5067944;28;20188;-73
2024/03/13 08:20:12;;;;;;;46.92;19.05;;;;;;;;;;5055836;28;20291;-73
2024/03/13 08:22:39;;;;;;;41.70;18.80;;;;;;;;;;5065465;28;20181;-73
2024/03/13 08:25:05;;;;;;;53.65;21.67;;;;;;;;;;5070927;28;20284;-73
2024/03/13 08:27:30;;;;;;;41.13;18.10;;;;;;;;;;5056549;28;20203;-72
2024/03/13 08:29:56;;;;;;;47.17;19.77;;;;;;;;;;5072990;28;20215;-73
2024/03/13 08:32:22;;;;;;;43.67;18.75;;;;;;;;;;5062298;28;20246;-73
2024/03/13 08:34:48;;;;;;;38.80;19.13;;;;;;;;;;5072896;28;20206;-74
2024/03/13 08:37:14;;;;;;;44.25;19.10;;;;;;;;;;5069165;28;20271;-74
2024/03/13 08:39:39;;;;;;;41.47;18.83;;;;;;;;;;5067742;28;20605;-73
2024/03/13 08:42:05;;;;;;;38.65;18.58;;;;;;;;;;5069693;28;20237;-75
2024/03/13 08:44:30;;;;;;;46.65;19.25;;;;;;;;;;5070360;28;20196;-74
2024/03/13 08:46:57;;;;;;;41.90;19.25;;;;;;;;;;5061531;28;20185;-74
2024/03/13 08:49:22;;;;;;;43.15;18.52;;;;;;;;;;5055949;28;20216;-73
2024/03/13 08:51:48;;;;;;;41.03;18.65;;;;;;;;;;5071866;28;20181;-74
2024/03/13 08:54:13;;;;;;;39.47;18.08;;;;;;;;;;5069869;28;20200;-73
2024/03/13 08:56:39;;;;;;;41.60;18.90;;;;;;;;;;5057387;28;20284;-73
2024/03/13 08:59:05;;;;;;;42.70;18.80;;;;;;;;;;5074270;28;20621;-73
2024/03/13 09:01:31;;;;;;;38.90;17.58;;;;;;;;;;5064616;28;20189;-75
2024/03/13 09:03:59;;;;;;;37.10;17.60;;;;;;;;;;5078397;28;20180;-74
2024/03/13 09:06:24;;;;;;;39.85;17.60;;;;;;;;;;5069888;28;20339;-74
2024/03/13 09:08:50;;;;;;;40.33;17.83;;;;;;;;;;5079794;28;20287;-73
2024/03/13 09:11:18;;;;;;;38.20;17.95;;;;;;;;;;5084164;28;20218;-74
2024/03/13 09:13:44;;;;;;;35.30;16.67;;;;;;;;;;5075849;28;20188;-74
2024/03/13 09:16:14;;;;;;;39.08;17.05;;;;;;;;;;5076181;28;20702;-74
2024/03/13 09:18:39;;;;;;;33.55;15.48;;;;;;;;;;5074768;28;20561;-74
2024/03/13 09:21:05;;;;;;;32.13;15.32;;;;;;;;;;5088451;28;20340;-74
2024/03/13 09:23:32;;;;;;;32.45;14.95;;;;;;;;;;5080914;28;20180;-73
2024/03/13 09:25:57;;;;;;;31.27;16.20;;;;;;;;;;5075181;28;20220;-73
2024/03/13 09:28:23;;;;;;;29.02;14.63;;;;;;;;;;5075045;28;20684;-73
2024/03/13 09:30:49;;;;;;;28.48;14.57;;;;;;;;;;5079373;28;20184;-73
2024/03/13 09:33:14;;;;;;;27.65;14.35;;;;;;;;;;5083389;28;20192;-73
2024/03/13 09:35:40;;;;;;;28.20;13.50;;;;;;;;;;5070018;28;20942;-73
2024/03/13 09:38:05;;;;;;;24.85;12.43;;;;;;;;;;5079379;28;20173;-73
2024/03/13 09:40:31;;;;;;;22.70;12.38;;;;;;;;;;5074030;28;20392;-73
2024/03/13 09:43:01;;;;;;;22.05;12.00;;;;;;;;;;5075804;28;20488;-73
2024/03/13 09:45:26;;;;;;;22.48;10.57;;;;;;;;;;5078650;28;20401;-72
2024/03/13 09:47:53;;;;;;;18.05;10.20;;;;;;;;;;5081704;28;20185;-73
2024/03/13 09:50:21;;;;;;;21.80;10.63;;;;;;;;;;5078635;28;20548;-73
2024/03/13 09:52:53;;;;;;;21.02;9.48;;;;;;;;;;5076123;28;20177;-73
2024/03/13 09:55:19;;;;;;;17.17;9.52;;;;;;;;;;5074727;28;20197;-73
2024/03/13 09:57:46;;;;;;;15.38;8.68;;;;;;;;;;5078376;28;20172;-73
2024/03/13 10:00:18;;;;;;;18.40;9.25;;;;;;;;;;5077258;28;20198;-72
2024/03/13 10:02:51;;;;;;;14.43;8.60;;;;;;;;;;5065451;28;20246;-73
2024/03/13 10:05:19;;;;;;;15.13;8.70;;;;;;;;;;5078032;28;20540;-73
2024/03/13 10:07:50;;;;;;;14.52;8.55;;;;;;;;;;5073156;28;20206;-73
2024/03/13 10:10:26;;;;;;;15.45;8.63;;;;;;;;;;5078546;28;20216;-74
2024/03/13 10:12:55;;;;;;;17.67;9.18;;;;;;;;;;5074079;28;20188;-74
2024/03/13 10:15:21;;;;;;;16.10;8.48;;;;;;;;;;5064829;28;20192;-73
2024/03/13 10:18:07;;;;;;;17.10;9.55;;;;;;;;;;5052620;28;20205;-74
2024/03/13 10:20:47;;;;;;;14.60;9.07;;;;;;;;;;5065227;28;20193;-73
2024/03/13 10:23:14;;;;;;;17.30;9.60;;;;;;;;;;5073521;28;20194;-74
2024/03/13 10:25:42;;;;;;;17.02;9.75;;;;;;;;;;5075656;28;20185;-73
2024/03/13 10:28:11;;;;;;;19.35;9.77;;;;;;;;;;5072888;28;20224;-73
2024/03/13 10:30:37;;;;;;;15.48;8.93;;;;;;;;;;5064903;28;20219;-73
2024/03/13 10:33:03;;;;;;;17.83;9.60;;;;;;;;;;5068057;28;20196;-73
2024/03/13 10:35:29;;;;;;;15.98;10.18;;;;;;;;;;5055634;28;20224;-74
2024/03/13 10:37:56;;;;;;;18.65;10.20;;;;;;;;;;5075961;28;20245;-73
2024/03/13 10:40:24;;;;;;;17.83;10.57;;;;;;;;;;5075467;28;20180;-73
2024/03/13 10:42:50;;;;;;;17.52;10.40;;;;;;;;;;5060261;28;20192;-73
2024/03/13 10:45:15;;;;;;;20.95;11.38;;;;;;;;;;5068335;28;20264;-73
2024/03/13 10:47:41;;;;;;;16.85;10.57;;;;;;;;;;5076545;28;20194;-73
2024/03/13 10:50:12;;;;;;;15.65;10.02;;;;;;;;;;5075474;28;20184;-73
2024/03/13 10:52:39;;;;;;;16.02;9.68;;;;;;;;;;5073741;28;20192;-73
2024/03/13 10:55:08;;;;;;;15.88;10.23;;;;;;;;;;5071347;28;20264;-73
2024/03/13 10:57:36;;;;;;;17.98;11.20;;;;;;;;;;5071314;28;20268;-72
2024/03/13 11:00:11;;;;;;;22.30;11.27;;;;;;;;;;5068231;28;20189;-72
2024/03/13 11:02:38;;;;;;;18.77;11.20;;;;;;;;;;5073678;28;20320;-72
2024/03/13 11:05:11;;;;;;;19.10;10.52;;;;;;;;;;5062915;28;20196;-72
2024/03/13 11:07:37;;;;;;;19.17;11.30;;;;;;;;;;5065866;28;20500;-73
2024/03/13 11:10:03;;;;;;;17.92;10.82;;;;;;;;;;5066291;28;20260;-73
2024/03/13 11:12:31;;;;;;;21.23;11.30;;;;;;;;;;5054889;28;20599;-73
2024/03/13 11:15:03;;;;;;;19.25;11.45;;;;;;;;;;5049957;28;20186;-73
2024/03/13 11:17:31;;;;;;;16.67;10.27;;;;;;;;;;5058753;28;20263;-72
2024/03/13 11:20:08;;;;;;;15.75;10.18;;;;;;;;;;5064876;28;20235;-73
2024/03/13 11:22:35;;;;;;;16.20;10.57;;;;;;;;;;5068135;28;20599;-73
2024/03/13 11:25:06;;;;;;;15.15;9.60;;;;;;;;;;5063475;28;20230;-73
2024/03/13 11:27:35;;;;;;;15.80;9.35;;;;;;;;;;5060994;28;20184;-73
2024/03/13 11:30:03;;;;;;;14.15;9.68;;;;;;;;;;5060606;28;20223;-72
2024/03/13 11:32:30;;;;;;;14.82;9.52;;;;;;;;;;5067711;28;20229;-72
2024/03/13 11:34:56;;;;;;;17.85;9.98;;;;;;;;;;5071016;28;20292;-72
2024/03/13 11:37:23;;;;;;;14.45;9.13;;;;;;;;;;5060353;28;20203;-72
2024/03/13 11:39:52;;;;;;;16.40;9.70;;;;;;;;;;5059877;28;20204;-73
2024/03/13 11:42:17;;;;;;;14.80;9.43;;;;;;;;;;5066542;28;20196;-73
2024/03/13 11:44:49;;;;;;;13.57;8.77;;;;;;;;;;5057336;28;20177;-72
2024/03/13 11:47:16;;;;;;;16.40;10.20;;;;;;;;;;5062117;28;20220;-72
2024/03/13 11:49:42;;;;;;;18.20;9.63;;;;;;;;;;5068601;28;20251;-72
2024/03/13 11:52:10;;;;;;;14.63;9.38;;;;;;;;;;5065070;28;20185;-73
2024/03/13 11:54:43;;;;;;;16.70;9.55;;;;;;;;;;5061644;28;20185;-72
2024/03/13 11:57:14;;;;;;;16.83;9.63;;;;;;;;;;5069589;28;20254;-72
2024/03/13 11:59:50;;;;;;;15.15;9.70;;;;;;;;;;5065182;28;20264;-73
2024/03/13 12:02:31;;;;;;;16.10;9.85;;;;;;;;;;5053286;28;20181;-72
2024/03/13 12:05:12;;;;;;;20.00;9.73;;;;;;;;;;5064797;28;20551;-72
2024/03/13 12:07:41;;;;;;;15.02;9.40;;;;;;;;;;5065905;28;20193;-72
2024/03/13 12:10:15;;;;;;;19.13;10.65;;;;;;;;;;5063800;28;20216;-72
2024/03/13 12:12:41;;;;;;;18.35;10.60;;;;;;;;;;5062711;28;20185;-72
2024/03/13 12:15:08;;;;;;;17.20;10.07;;;;;;;;;;5065308;28;20185;-72
2024/03/13 12:17:33;;;;;;;16.48;9.68;;;;;;;;;;5070054;28;20208;-72
2024/03/13 12:19:59;;;;;;;16.42;9.82;;;;;;;;;;5070854;28;20236;-72
2024/03/13 12:22:24;;;;;;;16.02;9.23;;;;;;;;;;5057534;28;20185;-72
2024/03/13 12:24:51;;;;;;;16.58;9.60;;;;;;;;;;5059999;28;20235;-72
2024/03/13 12:27:17;;;;;;;15.18;9.90;;;;;;;;;;5067482;28;20543;-72
2024/03/13 12:29:44;;;;;;;14.18;9.48;;;;;;;;;;5071557;28;20624;-72
2024/03/13 12:32:13;;;;;;;16.75;9.80;;;;;;;;;;5072096;28;20189;-72
2024/03/13 12:34:43;;;;;;;19.13;9.43;;;;;;;;;;5064665;28;20598;-72
2024/03/13 12:37:14;;;;;;;14.68;9.55;;;;;;;;;;5063713;28;20255;-72
2024/03/13 12:39:40;;;;;;;21.92;10.63;;;;;;;;;;5071266;28;20184;-72
2024/03/13 12:42:09;;;;;;;19.45;11.52;;;;;;;;;;5069910;28;20204;-71
2024/03/13 12:44:35;;;;;;;20.88;11.60;;;;;;;;;;5078858;28;20563;-71
2024/03/13 12:47:00;;;;;;;20.38;12.80;;;;;;;;;;5071531;28;20195;-71
2024/03/13 12:49:26;;;;;;;21.58;12.80;;;;;;;;;;5070994;28;20200;-71
2024/03/13 12:51:54;;;;;;;21.55;11.50;;;;;;;;;;5071346;28;20643;-71
2024/03/13 12:54:20;;;;;;;20.42;11.43;;;;;;;;;;5072065;28;20630;-72
2024/03/13 12:56:45;;;;;;;24.02;12.68;;;;;;;;;;5069268;28;20184;-71
2024/03/13 12:59:11;;;;;;;21.25;12.10;;;;;;;;;;5071562;28;20264;-72
2024/03/13 13:01:37;;;;;;;23.15;11.95;;;;;;;;;;5055033;28;20180;-71
2024/03/13 13:04:03;;;;;;;20.38;11.38;;;;;;;;;;5071684;28;20246;-71
2024/03/13 13:06:29;;;;;;;21.17;11.98;;;;;;;;;;5056211;28;20663;-71
2024/03/13 13:08:55;;;;;;;19.92;11.65;;;;;;;;;;5066658;28;20209;-72
2024/03/13 13:11:20;;;;;;;20.17;11.75;;;;;;;;;;5066531;28;20590;-73
2024/03/13 13:13:46;;;;;;;20.00;12.30;;;;;;;;;;5068263;28;20612;-71
2024/03/13 13:16:12;;;;;;;16.92;9.60;;;;;;;;;;5062572;28;20189;-73
2024/03/13 13:18:44;;;;;;;16.15;9.48;;;;;;;;;;5065899;28;20291;-72
2024/03/13 13:21:10;;;;;;;14.35;7.63;;;;;;;;;;5071052;28;20577;-73
2024/03/13 13:23:36;;;;;;;14.85;6.75;;;;;;;;;;5056655;28;20231;-71
2024/03/13 13:26:02;;;;;;;15.18;6.40;;;;;;;;;;5070983;28;20184;-71
2024/03/13 13:28:28;;;;;;;11.40;5.82;;;;;;;;;;5071456;28;20253;-72
2024/03/13 13:30:55;;;;;;;11.18;5.90;;;;;;;;;;5054722;28;20184;-72
2024/03/13 13:33:20;;;;;;;11.43;5.00;;;;;;;;;;5069441;28;20280;-71
2024/03/13 13:35:46;;;;;;;12.27;5.97;;;;;;;;;;5056083;28;20656;-71
2024/03/13 13:38:12;;;;;;;12.38;6.45;;;;;;;;;;5056711;28;20636;-72
2024/03/13 13:40:38;;;;;;;11.55;5.63;;;;;;;;;;5069850;28;20327;-71
2024/03/13 13:43:04;;;;;;;11.10;5.68;;;;;;;;;;5070720;28;20220;-72
2024/03/13 13:45:29;;;;;;;12.45;5.88;;;;;;;;;;5067449;28;20216;-72
2024/03/13 13:47:55;;;;;;;11.10;5.30;;;;;;;;;;5069652;28;20268;-72
2024/03/13 13:50:21;;;;;;;10.43;5.20;;;;;;;;;;5069564;28;20219;-72
2024/03/13 13:52:47;;;;;;;10.98;5.50;;;;;;;;;;5066592;28;20552;-72
2024/03/13 13:55:15;;;;;;;10.25;5.15;;;;;;;;;;5068252;28;20188;-72
2024/03/13 13:57:42;;;;;;;10.50;5.53;;;;;;;;;;5067325;28;20562;-72
2024/03/13 14:00:15;;;;;;;9.23;5.22;;;;;;;;;;5070147;28;20279;-73
2024/03/13 14:02:47;;;;;;;10.52;5.38;;;;;;;;;;5063655;28;20222;-72
2024/03/13 14:05:13;;;;;;;10.20;6.32;;;;;;;;;;5053353;28;20250;-71
2024/03/13 14:07:44;;;;;;;12.10;6.88;;;;;;;;;;5051323;28;20275;-72
2024/03/13 14:10:10;;;;;;;13.05;7.30;;;;;;;;;;5068739;28;20738;-72
2024/03/13 14:12:40;;;;;;;11.55;7.63;;;;;;;;;;5062388;28;20567;-72
2024/03/13 14:15:13;;;;;;;14.55;7.75;;;;;;;;;;5046245;28;20291;-71
2024/03/13 14:17:38;;;;;;;15.27;8.68;;;;;;;;;;5047280;28;20201;-72
2024/03/13 14:20:18;;;;;;;17.65;8.60;;;;;;;;;;5040584;28;20224;-72
2024/03/13 14:22:53;;;;;;;12.70;9.25;;;;;;;;;;5042035;28;20174;-72
2024/03/13 14:25:20;;;;;;;19.58;10.55;;;;;;;;;;5043307;28;20562;-72
2024/03/13 14:27:45;;;;;;;17.23;12.00;;;;;;;;;;5047293;28;20181;-71
2024/03/13 14:30:11;;;;;;;19.25;12.95;;;;;;;;;;5045272;28;20686;-71
2024/03/13 14:32:37;;;;;;;17.85;11.93;;;;;;;;;;5042938;28;20212;-72
2024/03/13 14:35:03;;;;;;;17.40;11.05;;;;;;;;;;5045399;28;20311;-72
2024/03/13 14:37:31;;;;;;;16.88;12.38;;;;;;;;;;5046927;28;20201;-72